Time;durP1;ratioP1;P1;durP2;ratioP2;P2;SDS_P1;SDS_P2;PMS_P1;PMS_P2;Temp;Humidity;BMP_temperature;BMP_pressure;BME280_temperature;BME280_humidity;BME280_pressure;Samples;Min_cycle;Max_cycle;Signal;HPM_P1;HPM_P2
2021/11/30 00:00:51;;;;;;;11.20;5.22;;;;;;;;;;5029209;28;20734;-81
2021/11/30 00:03:16;;;;;;;8.52;5.45;;;;;;;;;;5034648;28;20129;-81
2021/11/30 00:05:44;;;;;;;9.50;5.53;;;;;;;;;;5023849;28;20030;-81
2021/11/30 00:08:10;;;;;;;9.65;5.53;;;;;;;;;;5024093;28;20088;-82
2021/11/30 00:10:48;;;;;;;9.07;5.15;;;;;;;;;;5020196;28;20026;-83
2021/11/30 00:13:17;;;;;;;9.55;5.15;;;;;;;;;;5024590;28;20025;-81
2021/11/30 00:15:43;;;;;;;9.07;5.40;;;;;;;;;;5027600;28;20042;-79
2021/11/30 00:18:09;;;;;;;10.05;5.53;;;;;;;;;;5031909;28;20097;-80
2021/11/30 00:20:35;;;;;;;9.23;4.80;;;;;;;;;;5035312;28;20025;-82
2021/11/30 00:23:00;;;;;;;7.30;4.50;;;;;;;;;;5027985;28;20048;-82
2021/11/30 00:25:25;;;;;;;7.88;4.38;;;;;;;;;;5031548;28;20041;-80
2021/11/30 00:27:52;;;;;;;8.75;4.13;;;;;;;;;;5038058;28;20073;-82
2021/11/30 00:30:17;;;;;;;7.30;3.95;;;;;;;;;;5028719;28;20439;-84
2021/11/30 00:32:42;;;;;;;7.78;4.20;;;;;;;;;;5025735;28;20112;-81
2021/11/30 00:35:08;;;;;;;6.65;3.85;;;;;;;;;;5031596;28;20029;-81
2021/11/30 00:37:33;;;;;;;7.15;4.15;;;;;;;;;;5029845;28;20029;-82
2021/11/30 00:39:58;;;;;;;6.55;3.60;;;;;;;;;;5025168;28;20017;-81
2021/11/30 00:42:25;;;;;;;8.10;4.22;;;;;;;;;;5025628;28;20026;-82
2021/11/30 00:44:51;;;;;;;7.07;4.07;;;;;;;;;;5027291;28;20033;-82
2021/11/30 00:47:19;;;;;;;7.80;3.97;;;;;;;;;;5031174;28;20049;-80
2021/11/30 00:49:45;;;;;;;6.97;4.28;;;;;;;;;;5027529;28;20057;-81
2021/11/30 00:52:11;;;;;;;6.70;3.78;;;;;;;;;;5029442;28;20108;-81
2021/11/30 00:54:36;;;;;;;6.68;4.03;;;;;;;;;;5032471;28;20728;-82
2021/11/30 00:57:01;;;;;;;7.25;3.95;;;;;;;;;;5032053;28;20030;-81
2021/11/30 00:59:27;;;;;;;6.40;4.00;;;;;;;;;;5025393;28;20038;-83
2021/11/30 01:01:53;;;;;;;9.00;4.15;;;;;;;;;;5029596;28;20014;-81
2021/11/30 01:04:19;;;;;;;6.93;3.90;;;;;;;;;;5031471;28;20079;-81
2021/11/30 01:06:44;;;;;;;8.40;3.80;;;;;;;;;;5023919;28;20037;-80
2021/11/30 01:09:09;;;;;;;7.50;4.28;;;;;;;;;;5029598;28;20056;-83
2021/11/30 01:11:34;;;;;;;9.63;4.93;;;;;;;;;;5025066;28;20052;-81
2021/11/30 01:14:00;;;;;;;8.35;4.50;;;;;;;;;;5025954;28;20331;-79
2021/11/30 01:16:25;;;;;;;8.77;4.30;;;;;;;;;;5027577;28;20045;-83
2021/11/30 01:18:50;;;;;;;8.45;4.38;;;;;;;;;;5032596;28;20021;-81
2021/11/30 01:21:15;;;;;;;6.95;4.40;;;;;;;;;;5026503;28;20056;-80
2021/11/30 01:23:41;;;;;;;6.80;4.20;;;;;;;;;;5026965;28;20028;-81
2021/11/30 01:26:06;;;;;;;8.35;3.88;;;;;;;;;;5024106;28;20469;-80
2021/11/30 01:28:31;;;;;;;8.18;3.63;;;;;;;;;;5022643;28;20076;-82
2021/11/30 01:30:58;;;;;;;6.03;4.00;;;;;;;;;;5029243;28;20055;-81
2021/11/30 01:33:23;;;;;;;6.43;4.13;;;;;;;;;;5035439;28;20036;-79
2021/11/30 01:35:49;;;;;;;5.85;3.78;;;;;;;;;;5028120;28;20259;-80
2021/11/30 01:38:14;;;;;;;6.80;3.35;;;;;;;;;;5028564;28;20492;-80
2021/11/30 01:40:41;;;;;;;5.55;3.85;;;;;;;;;;5025917;28;20033;-80
2021/11/30 01:43:09;;;;;;;5.80;3.72;;;;;;;;;;5022514;28;20109;-80
2021/11/30 01:50:32;;;;;;;5.07;3.10;;;;;;;;;;5033569;28;20032;-80
2021/11/30 01:52:58;;;;;;;5.93;3.45;;;;;;;;;;5024434;28;20017;-80
2021/11/30 01:55:23;;;;;;;5.68;3.47;;;;;;;;;;5030266;28;20032;-80
2021/11/30 01:57:51;;;;;;;6.47;3.33;;;;;;;;;;5026643;28;20230;-81
2021/11/30 02:00:17;;;;;;;5.03;3.17;;;;;;;;;;5029380;28;20025;-80
2021/11/30 02:02:42;;;;;;;6.25;3.50;;;;;;;;;;5033459;28;20043;-80
2021/11/30 02:05:08;;;;;;;5.72;3.50;;;;;;;;;;5018441;28;20259;-80
2021/11/30 02:07:34;;;;;;;4.60;3.15;;;;;;;;;;5031212;28;20101;-83
2021/11/30 02:09:59;;;;;;;5.30;3.50;;;;;;;;;;5034992;28;20106;-80
2021/11/30 02:12:24;;;;;;;6.65;3.58;;;;;;;;;;5034776;28;20044;-81
2021/11/30 02:14:51;;;;;;;5.13;3.22;;;;;;;;;;5034790;28;20029;-80
2021/11/30 02:17:16;;;;;;;5.95;3.60;;;;;;;;;;5030632;28;20397;-80
2021/11/30 02:19:46;;;;;;;4.47;3.15;;;;;;;;;;5035501;28;20025;-81
2021/11/30 02:22:13;;;;;;;7.43;3.70;;;;;;;;;;5027880;28;20025;-82
2021/11/30 02:24:39;;;;;;;5.13;3.40;;;;;;;;;;5032417;28;20030;-82
2021/11/30 02:27:04;;;;;;;6.75;3.75;;;;;;;;;;5031770;28;20097;-83
2021/11/30 02:29:30;;;;;;;4.53;3.10;;;;;;;;;;5029873;28;20048;-84
2021/11/30 02:31:55;;;;;;;5.25;3.30;;;;;;;;;;5023224;28;20117;-80
2021/11/30 02:34:20;;;;;;;4.80;2.80;;;;;;;;;;5019948;28;20145;-82
2021/11/30 02:36:53;;;;;;;5.03;2.88;;;;;;;;;;5040059;28;20071;-80
2021/11/30 02:39:22;;;;;;;4.22;2.80;;;;;;;;;;5036058;28;20010;-81
2021/11/30 02:41:48;;;;;;;4.60;2.85;;;;;;;;;;5036564;28;20037;-78
2021/11/30 02:44:16;;;;;;;4.90;2.75;;;;;;;;;;5043091;28;20081;-82
2021/11/30 02:46:44;;;;;;;4.35;2.83;;;;;;;;;;5043755;28;20024;-81
2021/11/30 02:49:11;;;;;;;3.60;2.58;;;;;;;;;;5046324;28;20021;-82
2021/11/30 02:51:38;;;;;;;5.30;3.00;;;;;;;;;;5037301;28;20036;-81
2021/11/30 02:54:04;;;;;;;4.53;2.83;;;;;;;;;;5027096;28;20062;-84
2021/11/30 02:56:29;;;;;;;4.30;2.80;;;;;;;;;;5036160;28;20052;-81
2021/11/30 02:58:55;;;;;;;4.97;3.20;;;;;;;;;;5033991;28;20029;-81
2021/11/30 03:01:21;;;;;;;6.40;3.00;;;;;;;;;;5034055;28;20021;-82
2021/11/30 03:03:46;;;;;;;4.88;2.85;;;;;;;;;;5034869;28;20030;-82
2021/11/30 03:06:11;;;;;;;5.65;3.15;;;;;;;;;;5034018;28;20021;-82
2021/11/30 03:08:38;;;;;;;11.05;3.03;;;;;;;;;;5038352;28;20009;-82
2021/11/30 03:11:03;;;;;;;7.13;2.95;;;;;;;;;;5028234;28;20021;-83
2021/11/30 03:13:28;;;;;;;4.00;2.75;;;;;;;;;;5038337;28;20100;-80
2021/11/30 03:15:56;;;;;;;4.35;2.83;;;;;;;;;;5031465;28;20029;-80
2021/11/30 03:18:22;;;;;;;4.93;3.33;;;;;;;;;;5024657;28;20089;-83
2021/11/30 03:20:47;;;;;;;4.20;2.70;;;;;;;;;;5031241;28;20022;-83
2021/11/30 03:23:13;;;;;;;5.88;3.75;;;;;;;;;;5028505;28;20017;-84
2021/11/30 03:25:40;;;;;;;4.65;3.22;;;;;;;;;;5027804;28;20049;-80
2021/11/30 03:28:05;;;;;;;4.25;2.90;;;;;;;;;;5023696;28;20204;-82
2021/11/30 03:30:31;;;;;;;4.65;3.10;;;;;;;;;;5032332;28;20034;-82
2021/11/30 03:35:40;;;;;;;4.22;2.78;;;;;;;;;;5032059;28;20048;-81
2021/11/30 03:38:05;;;;;;;4.70;3.00;;;;;;;;;;5032266;28;20461;-80
2021/11/30 03:40:31;;;;;;;4.32;3.00;;;;;;;;;;5032259;28;20029;-82
2021/11/30 03:42:56;;;;;;;5.25;2.80;;;;;;;;;;5019982;28;20018;-80
2021/11/30 03:45:21;;;;;;;5.65;3.28;;;;;;;;;;5030778;28;20044;-81
2021/11/30 03:47:46;;;;;;;5.28;2.92;;;;;;;;;;5034919;28;20036;-82
2021/11/30 03:50:12;;;;;;;5.65;3.15;;;;;;;;;;5033537;28;20438;-80
2021/11/30 03:52:37;;;;;;;5.25;3.00;;;;;;;;;;5033068;28;20029;-78
2021/11/30 03:55:03;;;;;;;4.35;2.83;;;;;;;;;;5026454;28;20064;-81
2021/11/30 03:57:28;;;;;;;5.38;2.83;;;;;;;;;;5033242;28;20339;-82
2021/11/30 03:59:54;;;;;;;4.82;3.00;;;;;;;;;;5031960;28;20319;-82
2021/11/30 04:02:19;;;;;;;5.80;3.00;;;;;;;;;;5027815;28;20060;-81
2021/11/30 04:04:45;;;;;;;4.07;2.70;;;;;;;;;;5032347;28;20482;-83
2021/11/30 04:07:11;;;;;;;6.32;3.03;;;;;;;;;;5033193;28;20136;-84
2021/11/30 04:09:36;;;;;;;4.47;2.70;;;;;;;;;;5034013;28;20108;-84
2021/11/30 04:12:02;;;;;;;4.43;2.53;;;;;;;;;;5034334;28;20049;-82
2021/11/30 04:14:27;;;;;;;4.95;2.75;;;;;;;;;;5034383;28;20021;-82
2021/11/30 04:16:52;;;;;;;5.68;2.80;;;;;;;;;;5035682;28;20033;-81
2021/11/30 04:19:17;;;;;;;5.05;2.50;;;;;;;;;;5033526;28;20520;-80
2021/11/30 04:21:43;;;;;;;4.90;2.92;;;;;;;;;;5039686;28;20029;-83
2021/11/30 04:24:08;;;;;;;4.35;2.63;;;;;;;;;;5036000;28;20026;-82
2021/11/30 04:26:33;;;;;;;4.95;3.13;;;;;;;;;;5034716;28;20025;-82
2021/11/30 04:28:59;;;;;;;4.60;2.83;;;;;;;;;;5032862;28;20076;-82
2021/11/30 04:31:24;;;;;;;9.77;3.63;;;;;;;;;;5036091;28;20108;-81
2021/11/30 04:33:50;;;;;;;4.07;2.50;;;;;;;;;;5032136;28;20033;-80
2021/11/30 04:36:15;;;;;;;3.95;2.80;;;;;;;;;;5032050;28;20037;-82
2021/11/30 04:38:41;;;;;;;4.78;2.60;;;;;;;;;;5032840;28;20688;-82
2021/11/30 04:41:06;;;;;;;6.05;2.55;;;;;;;;;;5031637;28;20374;-82
2021/11/30 04:43:35;;;;;;;3.95;2.40;;;;;;;;;;5032979;28;20048;-82
2021/11/30 04:46:05;;;;;;;6.97;2.72;;;;;;;;;;5032005;28;20091;-81
2021/11/30 04:48:32;;;;;;;4.80;2.80;;;;;;;;;;5028131;28;20025;-81
2021/11/30 04:51:00;;;;;;;6.28;2.60;;;;;;;;;;5031625;28;20448;-81
2021/11/30 04:53:27;;;;;;;4.90;2.63;;;;;;;;;;5023010;28;20081;-84
2021/11/30 04:55:53;;;;;;;6.60;3.05;;;;;;;;;;5031193;28;20036;-83
2021/11/30 04:58:18;;;;;;;5.45;2.50;;;;;;;;;;5023774;28;20026;-82
2021/11/30 05:00:44;;;;;;;6.10;2.70;;;;;;;;;;5024690;28;20488;-80
2021/11/30 05:03:09;;;;;;;3.58;2.50;;;;;;;;;;5028594;28;20083;-80
2021/11/30 05:05:34;;;;;;;7.93;3.17;;;;;;;;;;5028831;28;20444;-81
2021/11/30 05:08:00;;;;;;;6.28;2.50;;;;;;;;;;5023955;28;20137;-82
2021/11/30 05:10:25;;;;;;;6.75;2.60;;;;;;;;;;5026547;28;20036;-81
2021/11/30 05:12:50;;;;;;;4.60;2.30;;;;;;;;;;5027334;28;20662;-80
2021/11/30 05:15:15;;;;;;;5.40;2.80;;;;;;;;;;5037536;28;20036;-80
2021/11/30 05:17:41;;;;;;;6.07;2.25;;;;;;;;;;5031268;28;20036;-81
2021/11/30 05:20:07;;;;;;;6.03;2.40;;;;;;;;;;5032672;28;20051;-83
2021/11/30 05:22:32;;;;;;;5.13;2.40;;;;;;;;;;5040669;28;20033;-85
2021/11/30 05:24:58;;;;;;;4.63;2.47;;;;;;;;;;5018829;28;20393;-82
2021/11/30 05:27:23;;;;;;;8.05;2.38;;;;;;;;;;5017975;28;20036;-81
2021/11/30 05:29:48;;;;;;;4.35;2.38;;;;;;;;;;5029987;28;20048;-83
2021/11/30 05:32:13;;;;;;;5.78;2.30;;;;;;;;;;5026050;28;20094;-85
2021/11/30 05:34:39;;;;;;;9.25;2.97;;;;;;;;;;5038867;28;20021;-82
2021/11/30 05:37:04;;;;;;;5.38;2.47;;;;;;;;;;5024725;28;20046;-83
2021/11/30 05:39:29;;;;;;;4.85;2.50;;;;;;;;;;5027297;28;20030;-84
2021/11/30 05:41:54;;;;;;;5.15;2.40;;;;;;;;;;5033800;28;20068;-85
2021/11/30 05:44:20;;;;;;;5.32;2.53;;;;;;;;;;5029762;28;20017;-82
2021/11/30 05:46:46;;;;;;;7.93;2.83;;;;;;;;;;5031034;28;20025;-80
2021/11/30 05:49:12;;;;;;;6.20;2.63;;;;;;;;;;5029598;28;20040;-83
2021/11/30 05:51:37;;;;;;;6.43;2.60;;;;;;;;;;5025044;28;20481;-80
2021/11/30 05:54:02;;;;;;;7.22;2.25;;;;;;;;;;5025063;28;20049;-65
2021/11/30 05:56:28;;;;;;;5.63;2.65;;;;;;;;;;5030555;28;20080;-65
2021/11/30 05:58:53;;;;;;;7.63;2.90;;;;;;;;;;5027817;28;20037;-66
2021/11/30 06:01:25;;;;;;;6.53;2.80;;;;;;;;;;5025532;28;20033;-65
2021/11/30 06:06:17;;;;;;;4.82;2.58;;;;;;;;;;5024060;28;20124;-65
2021/11/30 06:08:42;;;;;;;5.50;2.72;;;;;;;;;;5029163;28;20066;-65
2021/11/30 06:11:07;;;;;;;4.88;2.80;;;;;;;;;;5026621;28;20029;-64
2021/11/30 06:13:32;;;;;;;4.25;2.45;;;;;;;;;;5020771;28;20031;-65
2021/11/30 06:15:58;;;;;;;7.30;2.97;;;;;;;;;;5027222;28;20479;-65
2021/11/30 06:18:23;;;;;;;4.95;2.92;;;;;;;;;;5024559;28;20294;-64
2021/11/30 06:20:49;;;;;;;5.18;2.92;;;;;;;;;;5023459;28;20241;-65
2021/11/30 06:23:14;;;;;;;5.32;2.50;;;;;;;;;;5015976;28;20116;-65
2021/11/30 06:25:40;;;;;;;4.53;2.40;;;;;;;;;;5021977;28;20215;-65
2021/11/30 06:28:05;;;;;;;6.28;2.63;;;;;;;;;;5020246;28;20076;-66
2021/11/30 06:30:30;;;;;;;6.97;3.05;;;;;;;;;;5026030;28;20029;-65
2021/11/30 06:32:55;;;;;;;6.43;2.65;;;;;;;;;;5018909;28;20022;-65
2021/11/30 06:35:21;;;;;;;4.55;2.75;;;;;;;;;;5025488;28;20041;-65
2021/11/30 06:37:46;;;;;;;5.43;2.70;;;;;;;;;;5022820;28;20028;-65
2021/11/30 06:40:11;;;;;;;5.53;3.25;;;;;;;;;;5027915;28;20462;-66
2021/11/30 06:42:36;;;;;;;5.40;2.55;;;;;;;;;;5021570;28;20079;-65
2021/11/30 06:45:02;;;;;;;6.35;2.92;;;;;;;;;;5026793;28;20028;-66
2021/11/30 06:47:28;;;;;;;5.57;2.75;;;;;;;;;;5021232;28;20040;-65
2021/11/30 06:49:53;;;;;;;4.13;2.50;;;;;;;;;;5020162;28;20101;-65
2021/11/30 06:52:18;;;;;;;5.38;3.13;;;;;;;;;;5025020;28;20034;-66
2021/11/30 06:54:46;;;;;;;5.53;2.50;;;;;;;;;;5024022;28;20461;-64
2021/11/30 06:57:11;;;;;;;6.43;2.78;;;;;;;;;;5020463;28;20095;-66
2021/11/30 06:59:36;;;;;;;7.25;2.90;;;;;;;;;;5027377;28;20033;-65
2021/11/30 07:02:02;;;;;;;5.47;2.63;;;;;;;;;;5025293;28;20026;-63
2021/11/30 07:04:28;;;;;;;7.97;2.30;;;;;;;;;;5032107;28;20040;-65
2021/11/30 07:09:22;;;;;;;4.93;2.70;;;;;;;;;;5031824;28;20376;-66
2021/11/30 07:14:31;;;;;;;7.25;2.38;;;;;;;;;;5031993;28;20035;-66
2021/11/30 07:16:57;;;;;;;7.90;2.38;;;;;;;;;;5029823;28;20147;-66
2021/11/30 07:19:23;;;;;;;4.75;2.20;;;;;;;;;;5030474;28;20029;-66
2021/11/30 07:21:48;;;;;;;5.18;2.25;;;;;;;;;;5036390;28;20403;-65
2021/11/30 07:24:13;;;;;;;4.35;2.20;;;;;;;;;;5031044;28;20461;-65
2021/11/30 07:26:38;;;;;;;5.43;2.38;;;;;;;;;;5024221;28;20401;-64
2021/11/30 07:29:04;;;;;;;5.40;2.05;;;;;;;;;;5031445;28;20463;-66
2021/11/30 07:31:29;;;;;;;4.43;2.28;;;;;;;;;;5025944;28;20034;-65
2021/11/30 07:33:54;;;;;;;4.22;2.10;;;;;;;;;;5024756;28;20025;-65
2021/11/30 07:36:19;;;;;;;3.92;1.88;;;;;;;;;;5025455;28;20045;-66
2021/11/30 07:38:46;;;;;;;5.53;2.20;;;;;;;;;;5020353;28;20050;-64
2021/11/30 07:41:12;;;;;;;4.47;2.00;;;;;;;;;;5028486;28;20477;-65
2021/11/30 07:43:37;;;;;;;4.72;2.20;;;;;;;;;;5024683;28;20036;-65
2021/11/30 07:46:03;;;;;;;4.05;2.15;;;;;;;;;;5029637;28;20528;-66
2021/11/30 07:48:28;;;;;;;3.53;1.80;;;;;;;;;;5023527;28;20029;-65
2021/11/30 07:50:54;;;;;;;4.53;1.77;;;;;;;;;;5031191;28;20515;-66
2021/11/30 07:53:20;;;;;;;3.28;1.83;;;;;;;;;;5031028;28;20504;-66
2021/11/30 07:55:45;;;;;;;6.22;2.10;;;;;;;;;;5029738;28;20037;-65
2021/11/30 07:58:11;;;;;;;4.30;2.15;;;;;;;;;;5027232;28;20031;-66
2021/11/30 08:00:36;;;;;;;5.85;2.10;;;;;;;;;;5026585;28;20104;-66
2021/11/30 08:03:01;;;;;;;3.63;1.95;;;;;;;;;;5021652;28;20034;-66
2021/11/30 08:05:27;;;;;;;4.75;1.95;;;;;;;;;;5030333;28;20099;-65
2021/11/30 08:07:52;;;;;;;3.97;1.92;;;;;;;;;;5028962;28;20497;-66
2021/11/30 08:10:20;;;;;;;4.32;1.65;;;;;;;;;;5029236;28;20040;-66
2021/11/30 08:12:45;;;;;;;2.88;1.63;;;;;;;;;;5030572;28;20100;-67
2021/11/30 08:15:11;;;;;;;3.17;1.70;;;;;;;;;;5028134;28;20449;-66
2021/11/30 08:17:36;;;;;;;3.38;1.67;;;;;;;;;;5026254;28;20488;-66
2021/11/30 08:20:02;;;;;;;4.43;1.85;;;;;;;;;;5027953;28;20022;-66
2021/11/30 08:22:27;;;;;;;3.40;1.20;;;;;;;;;;5029735;28;20421;-66
2021/11/30 08:24:53;;;;;;;3.15;1.65;;;;;;;;;;5022667;28;20033;-67
2021/11/30 08:27:19;;;;;;;2.60;1.55;;;;;;;;;;5027119;28;20095;-67
2021/11/30 08:29:47;;;;;;;2.45;1.25;;;;;;;;;;5028838;28;20052;-66
2021/11/30 08:32:12;;;;;;;3.40;1.70;;;;;;;;;;5023047;28;20389;-66
2021/11/30 08:34:39;;;;;;;3.40;1.80;;;;;;;;;;5029945;28;20018;-66
2021/11/30 08:37:05;;;;;;;3.45;1.52;;;;;;;;;;5030336;28;20131;-66
2021/11/30 08:39:31;;;;;;;3.33;1.77;;;;;;;;;;5028707;28;20033;-66
2021/11/30 08:41:56;;;;;;;3.20;1.70;;;;;;;;;;5028438;28;20033;-66
2021/11/30 08:44:22;;;;;;;3.08;1.73;;;;;;;;;;5030049;28;20026;-67
2021/11/30 08:46:47;;;;;;;6.25;1.90;;;;;;;;;;5029913;28;20061;-64
2021/11/30 08:49:12;;;;;;;4.35;2.20;;;;;;;;;;5029933;28;20120;-66
2021/11/30 08:51:38;;;;;;;4.10;2.17;;;;;;;;;;5025973;28;20044;-66
2021/11/30 08:54:03;;;;;;;3.15;2.03;;;;;;;;;;5029470;28;20044;-67
2021/11/30 08:56:28;;;;;;;3.67;1.92;;;;;;;;;;5028328;28;20065;-67
2021/11/30 08:58:53;;;;;;;5.50;1.98;;;;;;;;;;5029483;28;20024;-66
2021/11/30 09:01:19;;;;;;;3.15;2.28;;;;;;;;;;5029434;28;20040;-66
2021/11/30 09:03:44;;;;;;;6.10;1.88;;;;;;;;;;5028387;28;20022;-66
2021/11/30 09:06:09;;;;;;;6.90;2.33;;;;;;;;;;5023192;28;20021;-68
2021/11/30 09:08:35;;;;;;;5.20;2.65;;;;;;;;;;5029513;28;20017;-65
2021/11/30 09:11:00;;;;;;;5.55;2.60;;;;;;;;;;5029434;28;20025;-65
2021/11/30 09:13:25;;;;;;;5.40;1.77;;;;;;;;;;5028295;28;20030;-64
2021/11/30 09:15:51;;;;;;;3.40;1.80;;;;;;;;;;5029501;28;20037;-65
2021/11/30 09:18:16;;;;;;;5.65;1.70;;;;;;;;;;5028808;28;20075;-65
2021/11/30 09:20:41;;;;;;;3.40;1.52;;;;;;;;;;5029058;28;20433;-66
2021/11/30 09:23:06;;;;;;;4.63;1.87;;;;;;;;;;5029248;28;20026;-68
2021/11/30 09:25:32;;;;;;;4.87;1.50;;;;;;;;;;5027946;28;20025;-65
2021/11/30 09:27:58;;;;;;;11.60;1.92;;;;;;;;;;5029142;28;20096;-65
2021/11/30 09:30:25;;;;;;;5.30;1.50;;;;;;;;;;5028991;28;20421;-66
2021/11/30 09:32:51;;;;;;;5.35;1.20;;;;;;;;;;5029095;28;20060;-67
2021/11/30 09:35:18;;;;;;;3.00;1.02;;;;;;;;;;5027766;28;20063;-66
2021/11/30 09:37:43;;;;;;;2.47;1.00;;;;;;;;;;5029351;28;20120;-64
2021/11/30 09:40:13;;;;;;;3.35;1.20;;;;;;;;;;5029571;28;20018;-65
2021/11/30 09:42:39;;;;;;;4.57;1.23;;;;;;;;;;5029259;28;20230;-68
2021/11/30 09:45:06;;;;;;;3.22;1.10;;;;;;;;;;5024652;28;20028;-66
2021/11/30 09:47:32;;;;;;;4.20;1.52;;;;;;;;;;5023029;28;20037;-64
2021/11/30 09:49:57;;;;;;;7.85;1.73;;;;;;;;;;5028512;28;20499;-65
2021/11/30 09:52:22;;;;;;;6.25;1.27;;;;;;;;;;5029089;28;20036;-64
2021/11/30 09:54:48;;;;;;;2.53;1.30;;;;;;;;;;5027969;28;20025;-65
2021/11/30 09:57:14;;;;;;;3.20;1.20;;;;;;;;;;5025742;28;20466;-66
2021/11/30 09:59:42;;;;;;;4.20;1.38;;;;;;;;;;5028273;28;20029;-65
2021/11/30 10:02:08;;;;;;;2.75;1.20;;;;;;;;;;5023001;28;20022;-66
2021/11/30 10:04:35;;;;;;;2.83;1.10;;;;;;;;;;5026991;28;20274;-65
2021/11/30 10:07:00;;;;;;;2.53;1.17;;;;;;;;;;5027993;28;20091;-65
2021/11/30 10:09:26;;;;;;;7.63;1.48;;;;;;;;;;5028337;28;20029;-66
2021/11/30 10:11:58;;;;;;;3.30;1.15;;;;;;;;;;5028236;28;20148;-65
2021/11/30 10:14:33;;;;;;;3.67;1.50;;;;;;;;;;5026348;28;20026;-65
2021/11/30 10:17:17;;;;;;;3.00;1.17;;;;;;;;;;5028041;28;20038;-65
2021/11/30 10:19:43;;;;;;;4.18;1.05;;;;;;;;;;5028091;28;20473;-66
2021/11/30 10:22:09;;;;;;;7.80;1.52;;;;;;;;;;5034444;28;20041;-65
2021/11/30 10:24:34;;;;;;;3.83;1.10;;;;;;;;;;5027962;28;20461;-65
2021/11/30 10:27:00;;;;;;;4.00;1.40;;;;;;;;;;5028329;28;20136;-65
2021/11/30 10:29:25;;;;;;;2.53;1.27;;;;;;;;;;5029216;28;20037;-65
2021/11/30 10:31:51;;;;;;;3.00;1.10;;;;;;;;;;5032689;28;20040;-65
2021/11/30 10:34:17;;;;;;;2.05;0.90;;;;;;;;;;5032629;28;20044;-66
2021/11/30 10:37:02;;;;;;;3.97;1.35;;;;;;;;;;5023557;28;20129;-63
2021/11/30 10:39:29;;;;;;;2.58;1.00;;;;;;;;;;5028217;28;20037;-66
2021/11/30 10:42:11;;;;;;;4.82;1.20;;;;;;;;;;5032507;28;20522;-65
2021/11/30 10:44:37;;;;;;;1.95;0.77;;;;;;;;;;5032238;28;20388;-65
2021/11/30 10:47:16;;;;;;;0.98;0.70;;;;;;;;;;5024669;28;20136;-65
2021/11/30 10:50:00;;;;;;;2.83;0.80;;;;;;;;;;5026186;28;20127;-65
2021/11/30 10:52:30;;;;;;;1.30;0.82;;;;;;;;;;5034656;28;20033;-64
2021/11/30 10:55:14;;;;;;;3.15;0.73;;;;;;;;;;5032159;28;20539;-65
2021/11/30 10:57:43;;;;;;;1.70;0.80;;;;;;;;;;5023969;28;20034;-65
2021/11/30 11:00:19;;;;;;;4.90;1.08;;;;;;;;;;5027189;28;20265;-65
2021/11/30 11:02:53;;;;;;;1.58;0.70;;;;;;;;;;5031153;28;20461;-64
2021/11/30 11:05:26;;;;;;;0.90;0.60;;;;;;;;;;5025458;28;20022;-66
2021/11/30 11:08:10;;;;;;;1.50;0.75;;;;;;;;;;5019231;28;20198;-65
2021/11/30 11:10:35;;;;;;;1.25;0.73;;;;;;;;;;5031924;28;20112;-65
2021/11/30 11:13:19;;;;;;;3.13;0.90;;;;;;;;;;5031936;28;20113;-66
2021/11/30 11:15:44;;;;;;;5.30;1.07;;;;;;;;;;5031654;28;20038;-65
2021/11/30 11:18:18;;;;;;;4.00;0.98;;;;;;;;;;5032272;28;20068;-66
2021/11/30 11:20:44;;;;;;;1.55;0.80;;;;;;;;;;5035935;28;20040;-65
2021/11/30 11:23:18;;;;;;;2.40;1.05;;;;;;;;;;5025709;28;20548;-68
2021/11/30 11:25:43;;;;;;;3.25;0.90;;;;;;;;;;5031144;28;20033;-66
2021/11/30 11:28:08;;;;;;;3.10;0.88;;;;;;;;;;5028247;28;20038;-65
2021/11/30 11:30:33;;;;;;;2.67;1.25;;;;;;;;;;5030796;28;20022;-65
2021/11/30 11:32:59;;;;;;;4.90;0.90;;;;;;;;;;5031564;28;20051;-66
2021/11/30 11:35:24;;;;;;;2.42;0.70;;;;;;;;;;5030439;28;20027;-65
2021/11/30 11:37:50;;;;;;;2.00;0.80;;;;;;;;;;5030603;28;20037;-65
2021/11/30 11:40:15;;;;;;;1.75;0.70;;;;;;;;;;5029099;28;20044;-66
2021/11/30 11:42:42;;;;;;;2.95;1.30;;;;;;;;;;5031504;28;20038;-66
2021/11/30 11:45:07;;;;;;;2.30;0.90;;;;;;;;;;5031403;28;20381;-65
2021/11/30 11:47:33;;;;;;;1.38;0.70;;;;;;;;;;5031331;28;20016;-66
2021/11/30 11:50:08;;;;;;;1.33;0.70;;;;;;;;;;5025968;28;20168;-66
2021/11/30 11:52:36;;;;;;;1.73;0.80;;;;;;;;;;5033350;28;20032;-66
2021/11/30 11:55:02;;;;;;;1.40;0.88;;;;;;;;;;5030942;28;20037;-65
2021/11/30 11:57:27;;;;;;;2.00;0.70;;;;;;;;;;5031275;28;20037;-65
2021/11/30 11:59:52;;;;;;;0.80;0.55;;;;;;;;;;5029187;28;20465;-66
2021/11/30 12:02:27;;;;;;;2.88;0.80;;;;;;;;;;5030981;28;20021;-65
2021/11/30 12:05:04;;;;;;;2.35;0.80;;;;;;;;;;5030896;28;20366;-67
2021/11/30 12:07:48;;;;;;;0.60;0.60;;;;;;;;;;5030460;28;20045;-66
2021/11/30 12:10:17;;;;;;;1.35;0.77;;;;;;;;;;5025092;28;20024;-67
2021/11/30 12:13:00;;;;;;;2.72;0.85;;;;;;;;;;5030109;28;20124;-66
2021/11/30 12:15:46;;;;;;;1.55;0.82;;;;;;;;;;5030506;28;20033;-65
2021/11/30 12:18:29;;;;;;;1.85;0.80;;;;;;;;;;5026646;28;20541;-66
2021/11/30 12:21:10;;;;;;;4.15;0.80;;;;;;;;;;5030297;28;20061;-65
2021/11/30 12:23:35;;;;;;;1.77;0.80;;;;;;;;;;5020904;28;20064;-65
2021/11/30 12:26:01;;;;;;;1.63;0.90;;;;;;;;;;5030396;28;20064;-65
2021/11/30 12:28:44;;;;;;;1.88;0.88;;;;;;;;;;5030558;28;20128;-64
2021/11/30 12:31:27;;;;;;;2.28;1.08;;;;;;;;;;5030348;28;20057;-66
2021/11/30 12:33:52;;;;;;;1.48;0.70;;;;;;;;;;5026883;28;20357;-65
2021/11/30 12:36:25;;;;;;;3.40;0.65;;;;;;;;;;5030134;28;20033;-65
2021/11/30 12:38:50;;;;;;;2.28;0.82;;;;;;;;;;5030171;28;20034;-65
2021/11/30 12:41:22;;;;;;;2.30;0.77;;;;;;;;;;5030102;28;20393;-66
2021/11/30 12:43:47;;;;;;;1.15;0.75;;;;;;;;;;5029434;28;20021;-65
2021/11/30 12:46:18;;;;;;;3.20;0.95;;;;;;;;;;5030134;28;20021;-65
2021/11/30 12:48:44;;;;;;;2.30;0.82;;;;;;;;;;5023484;28;20029;-65
2021/11/30 12:51:22;;;;;;;3.65;0.60;;;;;;;;;;5032255;28;20033;-65
2021/11/30 12:53:48;;;;;;;1.25;0.63;;;;;;;;;;5023355;28;20483;-65
2021/11/30 12:56:14;;;;;;;5.50;0.80;;;;;;;;;;5029730;28;20124;-66
2021/11/30 12:58:46;;;;;;;2.15;0.73;;;;;;;;;;5029751;28;20026;-65
2021/11/30 13:01:17;;;;;;;1.20;0.70;;;;;;;;;;5029631;28;20029;-64
2021/11/30 13:03:42;;;;;;;7.45;0.75;;;;;;;;;;5029377;28;20020;-64
2021/11/30 13:06:07;;;;;;;1.63;0.77;;;;;;;;;;5028437;28;20476;-65
2021/11/30 13:08:52;;;;;;;2.35;0.80;;;;;;;;;;5024269;28;20029;-65
2021/11/30 13:11:18;;;;;;;0.90;0.63;;;;;;;;;;5029326;28;20022;-65
2021/11/30 13:13:43;;;;;;;3.47;1.10;;;;;;;;;;5029595;28;20029;-64
2021/11/30 13:16:09;;;;;;;7.72;0.90;;;;;;;;;;5028536;28;20112;-65
2021/11/30 13:18:34;;;;;;;2.45;0.85;;;;;;;;;;5029316;28;20025;-66
2021/11/30 13:21:00;;;;;;;1.50;0.70;;;;;;;;;;5036090;28;20013;-65
2021/11/30 13:23:26;;;;;;;1.50;0.63;;;;;;;;;;5034027;28;20025;-65
2021/11/30 13:25:52;;;;;;;1.73;0.70;;;;;;;;;;5028682;28;20040;-66
2021/11/30 13:28:18;;;;;;;1.88;0.90;;;;;;;;;;5029254;28;20071;-65
2021/11/30 13:30:45;;;;;;;3.80;1.77;;;;;;;;;;5029075;28;20041;-66
2021/11/30 13:33:12;;;;;;;2.78;0.80;;;;;;;;;;5029155;28;20385;-65
2021/11/30 13:35:42;;;;;;;1.23;0.60;;;;;;;;;;5027951;28;20084;-65
2021/11/30 13:38:18;;;;;;;1.27;0.60;;;;;;;;;;5019963;28;20021;-65
2021/11/30 13:40:43;;;;;;;1.25;0.75;;;;;;;;;;5024355;28;20034;-66
2021/11/30 13:43:29;;;;;;;2.35;0.85;;;;;;;;;;5029257;28;20036;-66
2021/11/30 13:45:55;;;;;;;1.27;0.80;;;;;;;;;;5028373;28;20145;-65
2021/11/30 13:48:40;;;;;;;1.55;0.75;;;;;;;;;;5023734;28;20034;-66
2021/11/30 13:51:10;;;;;;;3.35;0.80;;;;;;;;;;5027942;28;20025;-66
2021/11/30 13:53:37;;;;;;;1.42;0.75;;;;;;;;;;5021897;28;20461;-66
2021/11/30 13:56:07;;;;;;;3.03;0.75;;;;;;;;;;5025344;28;20124;-64
2021/11/30 13:58:33;;;;;;;1.30;0.65;;;;;;;;;;5022760;28;20033;-65
2021/11/30 14:03:51;;;;;;;3.00;0.95;;;;;;;;;;5028202;28;20064;-65
2021/11/30 14:06:20;;;;;;;1.13;0.80;;;;;;;;;;5027811;28;20474;-65
2021/11/30 14:08:45;;;;;;;1.17;0.60;;;;;;;;;;5028544;28;20120;-66
2021/11/30 14:11:15;;;;;;;2.00;0.60;;;;;;;;;;5028648;28;20105;-66
2021/11/30 14:13:40;;;;;;;0.80;0.60;;;;;;;;;;5028540;28;20037;-65
2021/11/30 14:16:05;;;;;;;1.20;0.60;;;;;;;;;;5028730;28;20046;-66
2021/11/30 14:18:31;;;;;;;2.20;0.90;;;;;;;;;;5021749;28;20024;-64
2021/11/30 14:20:56;;;;;;;1.77;0.60;;;;;;;;;;5032752;28;20059;-66
2021/11/30 14:23:23;;;;;;;2.25;0.80;;;;;;;;;;5033724;28;20380;-64
2021/11/30 14:25:50;;;;;;;0.80;0.60;;;;;;;;;;5028287;28;20492;-66
2021/11/30 14:28:17;;;;;;;2.50;0.88;;;;;;;;;;5020788;28;20096;-66
2021/11/30 14:30:44;;;;;;;1.45;0.80;;;;;;;;;;5016412;28;20029;-65
2021/11/30 14:33:18;;;;;;;3.40;1.30;;;;;;;;;;5024386;28;20018;-65
2021/11/30 14:35:50;;;;;;;1.27;0.70;;;;;;;;;;5016861;28;20022;-65
2021/11/30 14:38:24;;;;;;;1.02;0.57;;;;;;;;;;5008847;28;20097;-66
2021/11/30 14:40:49;;;;;;;2.65;0.60;;;;;;;;;;5017081;28;20380;-65
2021/11/30 14:43:19;;;;;;;1.50;0.73;;;;;;;;;;5017255;28;20037;-66
2021/11/30 14:45:44;;;;;;;3.42;0.80;;;;;;;;;;5011164;28;20056;-66
2021/11/30 14:48:17;;;;;;;1.60;0.70;;;;;;;;;;5027213;28;20025;-66
2021/11/30 14:50:50;;;;;;;4.05;0.60;;;;;;;;;;5026254;28;20018;-65
2021/11/30 14:53:23;;;;;;;1.33;0.65;;;;;;;;;;5021067;28;20079;-65
2021/11/30 14:55:49;;;;;;;2.92;0.88;;;;;;;;;;5020883;28;20048;-64
2021/11/30 14:58:25;;;;;;;2.28;0.80;;;;;;;;;;5028595;28;20033;-65
2021/11/30 15:00:51;;;;;;;0.60;0.43;;;;;;;;;;5028144;28;20033;-66